Port Huron, MI

01:49 EST 28. Únor 2015 (GMT -0500)
Port Huron Township | Change Station
CLOSE
Current Station
Osobní povětrnostní stanice
Location: Port Huron, MI
Nadmořská výška: 594 ft
Poblíž povětrnostní stanice

Výška 594 ft 43.00 °N, 82.48 °W | Updated 16 seconds ago

Jasno
Jasno
-3.4 °F
Pocit jako -3 °F
S
0.0
Vítr proměnlivý Vítr od JZ
Gusts 0.0 mil/h

Dnes
Vysoké -- | Nízké -- °F
--% Možnost srážek
Včera
Vysoké -- | Nízké -- °F
Precip. -- inčů
7:07 AM 6:17 PM
Dorůstající měsíc, 75% visible
Tlak 30.66 inčů
Viditelnost 10.0 mílí
Zataženo Jasno
Ochlazování větrem -3 °F
Rosný bod -6 °F
Vlhkost 87%
Dešťové srážky 0.00 inčů
Sněhová pokrývka Není k dispozici
UV záření 0 ze 12
Pyl .40 ze 12
Kvalita ovzduší Není k dispozici
Flu Activity Není k dispozici
METAR KPHN 280639Z AUTO 00000KT 10SM CLR M23/M25 A3066 RMK AO2

More Conditions Fewer Conditions

Tlak 30.66 inčů
Viditelnost 10.0 mílí
Zataženo Jasno
Ochlazování větrem -3 °F
Rosný bod -6 °F
Vlhkost 87%
Dešťové srážky 0.00 inčů
Sněhová pokrývka Není k dispozici
UV záření 0 ze 12
Pyl .40 ze 12
Kvalita ovzduší Není k dispozici
Flu Activity Není k dispozici
METAR KPHN 280639Z AUTO 00000KT 10SM CLR M23/M25 A3066 RMK AO2

More Conditions Fewer Conditions

10-Day Weather Forecast

Almanac

Astronomie

Feb. 28, 2015 Východ Západ
Skutečný čas
Občanský soumrak
Námořní soumrak
Astronomický soumrak
Měsíc
Délka denního světla
Délka dne
Tomorrow will be .
, % of the Moon is Illuminated

Dnešní extrémy

State Highs State Lows

Community

WunderPhotos

Upload Photos

1,800,978 snímků staženo!

WunderBlogs® & News

Nearby

Kvalita ovzduší

  Kvalita ovzduší Index kvality ovzduší Polutant
Not available.

Výška sněhu

Station Hloubka Nadmořská výška

Seizmická činnost

Město Distance Mag. Čas & datum
Minimální zobrazený rozsah je 2.5.

Pobřežní teplota vody

Lokalita Teplota

Poblíž povětrnostní stanice